createdAt,value
2019-01-30T00:02:01.934Z,16.70
2019-01-30T00:04:29.881Z,16.30
2019-01-30T00:06:57.868Z,16.73
2019-01-30T00:09:25.867Z,16.57
2019-01-30T00:11:53.830Z,15.73
2019-01-30T00:14:21.790Z,18.67
2019-01-30T00:16:49.800Z,17.47
2019-01-30T00:19:17.843Z,17.13
2019-01-30T00:21:45.771Z,17.93
2019-01-30T00:24:13.750Z,17.67
2019-01-30T00:26:41.844Z,16.83
2019-01-30T00:29:11.330Z,17.97
2019-01-30T00:31:39.924Z,18.63
2019-01-30T00:34:09.244Z,18.30
2019-01-30T00:36:37.608Z,22.60
2019-01-30T00:39:06.902Z,19.23
2019-01-30T00:41:35.265Z,18.90
2019-01-30T00:44:06.075Z,18.07
2019-01-30T00:46:35.223Z,18.57
2019-01-30T00:49:03.612Z,18.77
2019-01-30T00:51:31.713Z,18.27
2019-01-30T00:53:59.981Z,18.93
2019-01-30T00:56:27.975Z,19.23
2019-01-30T00:58:55.945Z,19.70
2019-01-30T01:01:23.929Z,19.20
2019-01-30T01:03:51.943Z,19.73
2019-01-30T01:06:19.968Z,20.33
2019-01-30T01:08:47.939Z,20.77
2019-01-30T01:11:15.922Z,19.17
2019-01-30T01:13:43.837Z,20.07
2019-01-30T01:16:11.804Z,19.80
2019-01-30T01:18:39.805Z,20.47
2019-01-30T01:21:07.776Z,22.33
2019-01-30T01:23:35.700Z,21.37
2019-01-30T01:26:03.666Z,21.43
2019-01-30T01:28:31.598Z,21.47
2019-01-30T01:30:59.577Z,20.20
2019-01-30T01:33:28.371Z,21.73
2019-01-30T01:35:56.418Z,22.70
2019-01-30T01:38:24.383Z,20.53
2019-01-30T01:40:52.397Z,20.73
2019-01-30T01:43:20.317Z,21.90
2019-01-30T01:45:48.314Z,21.60
2019-01-30T01:48:16.272Z,23.30
2019-01-30T01:50:44.342Z,22.57
2019-01-30T01:53:12.337Z,21.50
2019-01-30T01:55:40.292Z,22.63
2019-01-30T01:58:08.268Z,23.33
2019-01-30T02:00:36.215Z,21.60
2019-01-30T02:03:04.168Z,22.37
2019-01-30T02:05:32.135Z,22.50
2019-01-30T02:08:00.106Z,23.20
2019-01-30T02:10:28.139Z,23.73
2019-01-30T02:12:56.067Z,23.87
2019-01-30T02:15:23.981Z,21.13
2019-01-30T02:17:51.973Z,22.10
2019-01-30T02:20:21.107Z,21.77
2019-01-30T02:22:49.079Z,23.30
2019-01-30T02:25:17.138Z,21.73
2019-01-30T02:27:45.030Z,22.00
2019-01-30T02:30:14.490Z,23.37
2019-01-30T02:32:42.465Z,22.80
2019-01-30T02:35:10.453Z,21.97
2019-01-30T02:37:38.373Z,21.97
2019-01-30T02:40:07.067Z,22.93
2019-01-30T02:42:34.984Z,21.97
2019-01-30T02:45:02.922Z,21.73
2019-01-30T02:47:30.858Z,24.00
2019-01-30T02:49:58.958Z,24.63
2019-01-30T02:52:26.900Z,23.43
2019-01-30T02:54:54.843Z,24.63
2019-01-30T02:57:22.817Z,23.77
2019-01-30T02:59:50.849Z,25.60
2019-01-30T03:02:22.227Z,25.57
2019-01-30T03:04:50.205Z,26.83
2019-01-30T03:07:18.222Z,25.73
2019-01-30T03:09:46.191Z,25.80
2019-01-30T03:12:14.155Z,25.70
2019-01-30T03:14:42.130Z,27.23
2019-01-30T03:17:10.143Z,26.37
2019-01-30T03:19:38.115Z,26.87
2019-01-30T03:22:06.103Z,29.00
2019-01-30T03:24:34.065Z,28.07
2019-01-30T03:27:02.099Z,28.27
2019-01-30T03:29:30.052Z,26.30
2019-01-30T03:31:58.071Z,27.53
2019-01-30T03:34:26.132Z,27.13
2019-01-30T03:36:54.093Z,27.40
2019-01-30T03:39:22.055Z,27.27
2019-01-30T03:41:50.072Z,25.87
2019-01-30T03:44:18.035Z,26.70
2019-01-30T03:46:46.000Z,25.20
2019-01-30T03:49:13.963Z,27.13
2019-01-30T03:51:41.966Z,26.97
2019-01-30T03:54:09.993Z,25.20
2019-01-30T03:56:37.984Z,25.70
2019-01-30T03:59:05.962Z,28.10
2019-01-30T04:01:33.953Z,25.87
2019-01-30T04:04:01.978Z,26.27
2019-01-30T04:06:29.984Z,25.40
2019-01-30T04:08:57.993Z,26.60
2019-01-30T04:11:25.906Z,24.77
2019-01-30T04:13:53.922Z,26.03
2019-01-30T04:16:21.918Z,26.17
2019-01-30T04:18:49.945Z,26.00
2019-01-30T04:21:17.921Z,24.17
2019-01-30T04:23:45.954Z,25.70
2019-01-30T04:26:13.985Z,24.80
2019-01-30T04:28:42.014Z,25.43
2019-01-30T04:31:09.977Z,26.17
2019-01-30T04:33:37.933Z,25.10
2019-01-30T04:36:05.958Z,26.50
2019-01-30T04:38:33.906Z,27.17
2019-01-30T04:41:01.882Z,26.07
2019-01-30T04:43:29.857Z,26.37
2019-01-30T04:45:57.840Z,26.20
2019-01-30T04:48:25.792Z,27.63
2019-01-30T04:50:53.803Z,27.43
2019-01-30T04:53:21.759Z,28.40
2019-01-30T04:55:49.770Z,26.47
2019-01-30T04:58:17.739Z,29.60
2019-01-30T05:00:45.720Z,31.50
2019-01-30T05:03:13.673Z,30.17
2019-01-30T05:05:41.638Z,26.43
2019-01-30T05:08:09.705Z,29.07
2019-01-30T05:10:37.745Z,28.33
2019-01-30T05:13:05.652Z,27.07
2019-01-30T05:15:33.590Z,28.67
2019-01-30T05:18:01.625Z,29.27
2019-01-30T05:20:29.577Z,27.60
2019-01-30T05:22:57.582Z,26.20
2019-01-30T05:25:25.656Z,26.97
2019-01-30T05:27:53.668Z,26.47
2019-01-30T05:30:23.066Z,26.77
2019-01-30T05:32:51.080Z,26.93
2019-01-30T05:35:19.007Z,25.03
2019-01-30T05:37:47.135Z,25.43
2019-01-30T05:40:15.655Z,23.47
2019-01-30T05:42:43.563Z,24.27
2019-01-30T05:45:13.622Z,24.43
2019-01-30T05:47:41.684Z,23.80
2019-01-30T05:50:09.796Z,23.03
2019-01-30T05:52:37.759Z,23.00
2019-01-30T05:55:05.953Z,23.17
2019-01-30T05:57:34.098Z,26.05
2019-01-30T06:00:02.211Z,22.47
2019-01-30T06:02:30.216Z,23.03
2019-01-30T06:04:58.192Z,22.07
2019-01-30T06:07:26.146Z,21.10
2019-01-30T06:09:54.124Z,22.47
2019-01-30T06:12:22.152Z,20.67
2019-01-30T06:14:50.090Z,21.03
2019-01-30T06:17:18.044Z,21.03
2019-01-30T06:19:46.008Z,21.43
2019-01-30T06:22:14.028Z,20.53
2019-01-30T06:24:41.950Z,21.20
2019-01-30T06:27:09.971Z,20.60
2019-01-30T06:29:37.986Z,21.37
2019-01-30T06:32:05.886Z,20.23
2019-01-30T06:34:33.879Z,20.53
2019-01-30T06:37:01.892Z,20.27
2019-01-30T06:39:29.894Z,21.37
2019-01-30T06:41:57.833Z,20.30
2019-01-30T06:44:25.865Z,22.20
2019-01-30T06:46:53.834Z,18.83
2019-01-30T06:49:21.858Z,18.53
2019-01-30T06:51:49.886Z,21.27
2019-01-30T06:54:17.808Z,20.43
2019-01-30T06:56:45.797Z,21.07
2019-01-30T06:59:13.734Z,21.03
2019-01-30T07:01:41.709Z,21.60
2019-01-30T07:04:09.661Z,19.40
2019-01-30T07:06:37.769Z,20.47
2019-01-30T07:09:08.133Z,17.83
2019-01-30T07:11:36.168Z,17.47
2019-01-30T07:14:04.202Z,17.87
2019-01-30T07:16:32.081Z,17.23
2019-01-30T07:19:00.117Z,16.50
2019-01-30T07:21:28.135Z,15.93
2019-01-30T07:23:56.124Z,15.20
2019-01-30T07:26:24.032Z,16.13
2019-01-30T07:28:52.028Z,16.03
2019-01-30T07:31:20.204Z,15.03
2019-01-30T07:33:48.178Z,14.40
2019-01-30T07:36:16.139Z,15.10
2019-01-30T07:38:44.213Z,14.63
2019-01-30T07:41:12.152Z,14.73
2019-01-30T07:43:40.150Z,14.40
2019-01-30T07:46:08.069Z,14.53
2019-01-30T07:48:36.078Z,14.00
2019-01-30T07:51:04.033Z,14.13
2019-01-30T07:53:31.996Z,14.73
2019-01-30T07:55:59.995Z,13.90
2019-01-30T07:58:27.965Z,14.53
2019-01-30T08:00:55.951Z,14.87
2019-01-30T08:03:23.937Z,13.97
2019-01-30T08:05:51.912Z,14.33
2019-01-30T08:08:19.851Z,13.83
2019-01-30T08:10:47.844Z,16.30
2019-01-30T08:13:15.821Z,15.40
2019-01-30T08:15:43.965Z,16.57
2019-01-30T08:18:11.965Z,13.87
2019-01-30T08:20:40.117Z,14.10
2019-01-30T08:23:08.674Z,14.53
2019-01-30T08:25:37.267Z,14.17
2019-01-30T08:28:05.357Z,14.70
2019-01-30T08:30:33.355Z,14.53
2019-01-30T08:33:05.904Z,14.10
2019-01-30T08:35:31.978Z,14.17
2019-01-30T08:38:00.133Z,14.67
2019-01-30T08:40:28.152Z,13.07
2019-01-30T08:42:56.242Z,14.23
2019-01-30T08:45:25.405Z,14.00
2019-01-30T08:47:53.458Z,13.20
2019-01-30T08:50:21.435Z,13.80
2019-01-30T08:52:49.439Z,13.43
2019-01-30T08:55:17.379Z,14.97
2019-01-30T08:57:45.396Z,15.80
2019-01-30T09:00:14.653Z,16.60
2019-01-30T09:02:42.615Z,16.80
2019-01-30T09:05:10.680Z,15.33
2019-01-30T09:07:44.321Z,18.20
2019-01-30T09:10:09.395Z,14.57
2019-01-30T09:12:37.358Z,13.03
2019-01-30T09:15:05.825Z,14.20
2019-01-30T09:17:33.785Z,13.90
2019-01-30T09:20:01.881Z,14.43
2019-01-30T09:22:29.793Z,15.47
2019-01-30T09:24:57.770Z,16.70
2019-01-30T09:27:25.715Z,17.57
2019-01-30T09:29:53.699Z,18.00
2019-01-30T09:32:21.692Z,19.40
2019-01-30T09:34:49.682Z,19.60
2019-01-30T09:37:17.609Z,19.63
2019-01-30T09:39:45.637Z,20.27
2019-01-30T09:42:13.605Z,19.57
2019-01-30T09:44:41.558Z,17.37
2019-01-30T09:47:09.519Z,15.37
2019-01-30T09:49:37.536Z,14.47
2019-01-30T09:52:05.482Z,13.17
2019-01-30T09:54:33.440Z,14.73
2019-01-30T09:57:01.451Z,15.20
2019-01-30T09:59:29.465Z,14.10
2019-01-30T10:01:57.431Z,14.47
2019-01-30T10:04:25.362Z,12.23
2019-01-30T10:06:53.389Z,11.53
2019-01-30T10:09:21.381Z,12.13
2019-01-30T10:11:49.357Z,12.73
2019-01-30T10:14:17.268Z,10.63
2019-01-30T10:16:45.269Z,11.07
2019-01-30T10:19:13.226Z,12.20
2019-01-30T10:21:41.176Z,10.97
2019-01-30T10:24:09.117Z,11.70
2019-01-30T10:26:37.100Z,11.47
2019-01-30T10:29:05.061Z,11.53
2019-01-30T10:31:33.018Z,10.30
2019-01-30T10:34:00.969Z,10.27
2019-01-30T10:36:28.912Z,9.67
2019-01-30T10:38:56.884Z,9.87
2019-01-30T10:41:24.829Z,10.90
2019-01-30T10:43:52.847Z,10.60
2019-01-30T10:46:20.782Z,10.60
2019-01-30T10:48:48.749Z,10.47
2019-01-30T10:51:16.663Z,10.90
2019-01-30T10:53:44.641Z,11.43
2019-01-30T10:56:12.604Z,10.63
2019-01-30T10:58:40.564Z,9.03
2019-01-30T11:01:08.517Z,9.97
2019-01-30T11:03:36.460Z,11.17
2019-01-30T11:06:04.886Z,10.63
2019-01-30T11:08:34.557Z,10.53
2019-01-30T11:11:08.158Z,10.03
2019-01-30T11:13:32.228Z,10.53
2019-01-30T11:16:01.309Z,10.50
2019-01-30T11:18:29.412Z,11.17
2019-01-30T11:20:57.402Z,9.97
2019-01-30T11:23:25.353Z,9.80
2019-01-30T11:25:53.338Z,11.10
2019-01-30T11:28:21.326Z,10.93
2019-01-30T11:30:49.298Z,10.57
2019-01-30T11:33:17.244Z,10.63
2019-01-30T11:35:45.221Z,10.07
2019-01-30T11:38:13.165Z,11.50
2019-01-30T11:40:41.218Z,10.93
2019-01-30T11:43:09.223Z,11.17
2019-01-30T11:45:38.130Z,10.27
2019-01-30T11:48:06.305Z,10.73
2019-01-30T11:50:34.302Z,9.90
2019-01-30T11:53:02.326Z,9.70
2019-01-30T11:55:30.284Z,11.10
2019-01-30T11:57:58.245Z,11.23
2019-01-30T12:00:49.363Z,10.23
2019-01-30T12:03:17.277Z,10.07
2019-01-30T12:05:46.219Z,10.63
2019-01-30T12:08:14.239Z,10.80
2019-01-30T12:10:42.246Z,10.97
2019-01-30T12:13:10.175Z,10.23
2019-01-30T12:15:38.640Z,10.00
2019-01-30T12:18:06.710Z,9.43
2019-01-30T12:20:34.710Z,10.10
2019-01-30T12:23:02.649Z,8.93
2019-01-30T12:25:30.616Z,10.23
2019-01-30T12:27:58.600Z,9.83
2019-01-30T12:30:26.526Z,10.23
2019-01-30T12:32:54.524Z,9.20
2019-01-30T12:35:22.442Z,8.97
2019-01-30T12:37:50.433Z,9.77
2019-01-30T12:40:19.071Z,9.37
2019-01-30T12:42:47.127Z,9.07
2019-01-30T12:45:22.282Z,10.70
2019-01-30T12:47:50.619Z,10.23
2019-01-30T12:50:18.936Z,10.63
2019-01-30T12:52:48.360Z,10.83
2019-01-30T12:55:16.348Z,12.13
2019-01-30T12:57:44.314Z,12.37
2019-01-30T13:00:14.929Z,11.53
2019-01-30T13:02:42.943Z,11.57
2019-01-30T13:05:10.905Z,11.73
2019-01-30T13:07:39.010Z,11.60
2019-01-30T13:10:07.230Z,12.95
2019-01-30T13:12:35.379Z,12.37
2019-01-30T13:15:04.454Z,13.67
2019-01-30T13:17:32.468Z,13.23
2019-01-30T13:20:01.245Z,12.07
2019-01-30T13:22:29.187Z,13.55
2019-01-30T13:24:57.190Z,14.23
2019-01-30T13:27:25.185Z,14.67
2019-01-30T13:29:53.232Z,14.60
2019-01-30T13:32:21.165Z,13.53
2019-01-30T13:34:49.273Z,13.73
2019-01-30T13:37:17.292Z,13.50
2019-01-30T13:39:45.685Z,16.57
2019-01-30T13:42:13.653Z,15.43
2019-01-30T13:44:41.641Z,15.13
2019-01-30T13:47:09.596Z,17.47
2019-01-30T13:49:37.610Z,16.87
2019-01-30T13:52:05.537Z,16.70
2019-01-30T13:54:33.510Z,18.03
2019-01-30T13:57:01.491Z,17.77
2019-01-30T13:59:29.411Z,17.37
2019-01-30T14:01:57.407Z,16.40
2019-01-30T14:04:25.376Z,19.27
2019-01-30T14:06:53.414Z,19.27
2019-01-30T14:09:21.878Z,17.83
2019-01-30T14:11:49.901Z,18.43
2019-01-30T14:14:18.154Z,18.80
2019-01-30T14:16:46.095Z,19.00
2019-01-30T14:19:14.144Z,19.57
2019-01-30T14:21:42.199Z,19.57
2019-01-30T14:24:10.534Z,20.20
2019-01-30T14:26:39.919Z,19.67
2019-01-30T14:29:08.152Z,19.97
2019-01-30T14:31:36.213Z,20.97
2019-01-30T14:34:04.263Z,21.20
2019-01-30T14:36:33.343Z,21.60
2019-01-30T14:39:01.316Z,21.67
2019-01-30T14:41:29.377Z,23.33
2019-01-30T14:43:57.324Z,23.40
2019-01-30T14:46:27.027Z,23.33
2019-01-30T14:48:55.048Z,24.37
2019-01-30T14:51:23.496Z,24.70
2019-01-30T14:53:51.586Z,24.13
2019-01-30T14:56:19.637Z,22.53
2019-01-30T14:58:47.943Z,25.50
2019-01-30T15:01:16.176Z,25.03
2019-01-30T15:03:44.119Z,24.50
2019-01-30T15:06:12.120Z,23.83
2019-01-30T15:08:40.116Z,24.90
2019-01-30T15:11:08.123Z,25.33
2019-01-30T15:13:36.110Z,28.15
2019-01-30T15:16:04.112Z,28.63
2019-01-30T15:18:32.061Z,24.80
2019-01-30T15:21:00.050Z,26.33
2019-01-30T15:23:27.980Z,24.70
2019-01-30T15:25:56.850Z,23.67
2019-01-30T15:28:24.784Z,25.83
2019-01-30T15:30:52.982Z,25.70
2019-01-30T15:33:20.934Z,25.80
2019-01-30T15:35:48.950Z,24.20
2019-01-30T15:38:20.507Z,23.07
2019-01-30T15:40:47.486Z,23.53
2019-01-30T15:43:15.500Z,24.73
2019-01-30T15:45:43.528Z,24.03
2019-01-30T15:48:11.614Z,24.30
2019-01-30T15:50:40.397Z,22.37
2019-01-30T15:53:09.837Z,21.70
2019-01-30T15:55:37.856Z,21.90
2019-01-30T15:58:07.098Z,22.80
2019-01-30T16:00:36.189Z,21.67
2019-01-30T16:03:04.182Z,21.60
2019-01-30T16:05:32.269Z,21.07
2019-01-30T16:08:00.285Z,19.73
2019-01-30T16:10:28.287Z,20.77
2019-01-30T16:12:56.286Z,21.03
2019-01-30T16:15:25.634Z,20.13
2019-01-30T16:17:53.645Z,19.90
2019-01-30T16:20:21.758Z,19.10
2019-01-30T16:22:49.811Z,19.80
2019-01-30T16:25:19.811Z,17.97
2019-01-30T16:27:47.415Z,18.73
2019-01-30T16:30:16.787Z,17.33
2019-01-30T16:32:44.917Z,17.67
2019-01-30T16:35:14.245Z,17.53
2019-01-30T16:37:42.330Z,18.40
2019-01-30T16:40:11.372Z,17.17
2019-01-30T16:42:39.396Z,16.57
2019-01-30T16:45:09.015Z,17.00
2019-01-30T16:47:37.005Z,17.47
2019-01-30T16:50:05.362Z,17.43
2019-01-30T16:52:33.426Z,17.07
2019-01-30T16:55:01.482Z,18.43
2019-01-30T16:57:29.734Z,17.50
2019-01-30T16:59:57.745Z,17.70
2019-01-30T17:02:25.714Z,16.50
2019-01-30T17:04:53.735Z,16.23
2019-01-30T17:07:21.801Z,20.93
2019-01-30T17:09:49.758Z,16.67
2019-01-30T17:12:17.801Z,16.93
2019-01-30T17:14:45.810Z,17.73
2019-01-30T17:17:13.810Z,15.10
2019-01-30T17:19:41.874Z,18.80
2019-01-30T17:22:09.896Z,16.47
2019-01-30T17:24:37.892Z,16.43
2019-01-30T17:27:05.944Z,18.43
2019-01-30T17:29:36.750Z,16.57
2019-01-30T17:32:04.604Z,16.77
2019-01-30T17:34:32.874Z,16.60
2019-01-30T17:37:00.865Z,16.03
2019-01-30T17:39:28.984Z,16.90
2019-01-30T17:41:57.093Z,16.80
2019-01-30T17:44:26.809Z,14.87
2019-01-30T17:46:55.422Z,16.70
2019-01-30T17:49:23.464Z,16.83
2019-01-30T17:51:51.464Z,15.90
2019-01-30T17:54:19.465Z,15.00
2019-01-30T17:56:47.438Z,16.93
2019-01-30T17:59:15.456Z,15.80
2019-01-30T18:01:43.478Z,15.30
2019-01-30T18:04:11.455Z,17.17
2019-01-30T18:06:39.963Z,16.10
2019-01-30T18:09:09.426Z,17.90
2019-01-30T18:11:38.202Z,15.17
2019-01-30T18:14:10.306Z,16.80
2019-01-30T18:16:38.842Z,16.67
2019-01-30T18:19:06.900Z,15.13
2019-01-30T18:21:34.954Z,15.67
2019-01-30T18:24:03.797Z,15.77
2019-01-30T18:26:31.823Z,16.07
2019-01-30T18:29:00.418Z,16.73
2019-01-30T18:31:28.365Z,15.47
2019-01-30T18:33:56.585Z,19.23
2019-01-30T18:36:24.897Z,17.53
2019-01-30T18:38:54.406Z,17.10
2019-01-30T18:41:22.809Z,19.43
2019-01-30T18:43:50.762Z,18.03
2019-01-30T18:46:19.503Z,20.97
2019-01-30T18:48:47.447Z,20.90
2019-01-30T18:51:15.640Z,20.70
2019-01-30T18:53:44.098Z,17.40
2019-01-30T18:56:12.796Z,20.50
2019-01-30T18:58:41.005Z,20.23
2019-01-30T19:01:09.719Z,20.00
2019-01-30T19:03:37.781Z,20.20
2019-01-30T19:06:06.451Z,22.30
2019-01-30T19:08:34.605Z,21.33
2019-01-30T19:11:02.582Z,21.03
2019-01-30T19:13:30.564Z,23.30
2019-01-30T19:15:58.607Z,21.17
2019-01-30T19:18:26.616Z,20.30
2019-01-30T19:20:54.569Z,21.43
2019-01-30T19:23:22.570Z,19.93
2019-01-30T19:25:50.539Z,22.23
2019-01-30T19:28:18.500Z,20.67
2019-01-30T19:30:46.433Z,21.20
2019-01-30T19:33:14.386Z,21.07
2019-01-30T19:35:42.393Z,20.70
2019-01-30T19:38:10.335Z,21.60
2019-01-30T19:40:38.334Z,23.20
2019-01-30T19:43:06.359Z,20.80
2019-01-30T19:45:34.340Z,21.17
2019-01-30T19:48:02.288Z,20.90
2019-01-30T19:50:30.358Z,20.60
2019-01-30T19:52:59.922Z,22.17
2019-01-30T19:55:27.921Z,21.83
2019-01-30T19:57:56.111Z,21.33
2019-01-30T20:00:25.394Z,24.17
2019-01-30T20:02:53.535Z,22.07
2019-01-30T20:05:21.510Z,22.80
2019-01-30T20:07:49.860Z,23.67
2019-01-30T20:10:19.282Z,23.17
2019-01-30T20:12:47.175Z,23.03
2019-01-30T20:15:15.115Z,22.23
2019-01-30T20:17:43.061Z,22.40
2019-01-30T20:20:11.438Z,22.80
2019-01-30T20:22:39.368Z,22.27
2019-01-30T20:25:08.891Z,22.63
2019-01-30T20:27:36.884Z,23.93
2019-01-30T20:30:05.628Z,23.27
2019-01-30T20:32:33.610Z,25.07
2019-01-30T20:35:01.605Z,24.97
2019-01-30T20:37:29.581Z,23.13
2019-01-30T20:39:57.584Z,24.17
2019-01-30T20:42:25.605Z,25.00
2019-01-30T20:44:53.549Z,32.97
2019-01-30T20:47:21.512Z,33.03
2019-01-30T20:49:50.818Z,28.13
2019-01-30T20:52:18.856Z,27.43
2019-01-30T20:54:46.845Z,25.73
2019-01-30T20:57:14.854Z,27.40
2019-01-30T20:59:42.806Z,25.70
2019-01-30T21:02:10.752Z,27.07
2019-01-30T21:04:38.730Z,26.83
2019-01-30T21:07:06.656Z,25.77
2019-01-30T21:09:34.652Z,28.07
2019-01-30T21:12:02.596Z,29.00
2019-01-30T21:14:30.603Z,27.83
2019-01-30T21:16:58.522Z,27.87
2019-01-30T21:19:26.517Z,28.70
2019-01-30T21:21:54.443Z,29.83
2019-01-30T21:24:22.424Z,28.27
2019-01-30T21:26:50.410Z,29.83
2019-01-30T21:29:18.359Z,28.77
2019-01-30T21:31:46.325Z,30.27
2019-01-30T21:34:14.251Z,30.13
2019-01-30T21:36:42.188Z,30.03
2019-01-30T21:39:10.175Z,30.40
2019-01-30T21:41:38.099Z,28.63
2019-01-30T21:44:06.068Z,31.17
2019-01-30T21:46:34.017Z,27.33
2019-01-30T21:49:02.002Z,30.70
2019-01-30T21:51:29.960Z,28.80
2019-01-30T21:53:57.919Z,30.77
2019-01-30T21:56:25.928Z,27.60
2019-01-30T21:58:53.893Z,30.50
2019-01-30T22:01:21.891Z,31.23
2019-01-30T22:03:49.870Z,31.00
2019-01-30T22:06:17.858Z,29.80
2019-01-30T22:08:45.782Z,29.63
2019-01-30T22:11:13.817Z,30.47
2019-01-30T22:13:41.835Z,30.87
2019-01-30T22:16:09.789Z,30.27
2019-01-30T22:18:37.777Z,29.80
2019-01-30T22:21:05.770Z,31.33
2019-01-30T22:23:33.760Z,31.83
2019-01-30T22:26:01.835Z,30.03
2019-01-30T22:28:29.830Z,31.27
2019-01-30T22:30:57.776Z,31.17
2019-01-30T22:33:25.751Z,30.23
2019-01-30T22:35:54.000Z,31.10
2019-01-30T22:38:25.806Z,30.20
2019-01-30T22:40:54.760Z,30.97
2019-01-30T22:43:23.558Z,31.03
2019-01-30T22:45:52.391Z,31.07
2019-01-30T22:48:21.252Z,30.70
2019-01-30T22:50:50.086Z,37.67
2019-01-30T22:53:18.219Z,33.37
2019-01-30T22:55:46.524Z,31.40
2019-01-30T22:58:15.445Z,30.90
2019-01-30T23:01:13.594Z,31.37
2019-01-30T23:03:53.261Z,32.93
2019-01-30T23:06:31.233Z,31.83
2019-01-30T23:09:17.222Z,31.97
2019-01-30T23:11:58.068Z,31.87
2019-01-30T23:14:35.442Z,32.83
2019-01-30T23:17:31.360Z,34.00
2019-01-30T23:20:08.601Z,33.20
2019-01-30T23:23:07.645Z,31.27
2019-01-30T23:25:57.661Z,31.60
2019-01-30T23:28:43.234Z,31.90
2019-01-30T23:31:36.370Z,31.70
2019-01-30T23:34:13.369Z,33.37
2019-01-30T23:36:45.606Z,30.60
2019-01-30T23:39:41.536Z,32.87
2019-01-30T23:42:18.259Z,32.27
2019-01-30T23:44:50.047Z,31.93
2019-01-30T23:47:24.726Z,32.10
2019-01-30T23:49:59.911Z,29.33
2019-01-30T23:52:41.776Z,30.37
2019-01-30T23:55:37.810Z,33.53
2019-01-30T23:58:33.868Z,31.43
